createdAt,value
2023-05-01T00:01:26.020Z,39.14
2023-05-01T00:03:52.832Z,39.16
2023-05-01T00:06:19.557Z,39.35
2023-05-01T00:11:39.949Z,39.52
2023-05-01T00:14:06.330Z,39.84
2023-05-01T00:16:32.712Z,39.44
2023-05-01T00:18:59.048Z,39.97
2023-05-01T00:21:25.384Z,39.72
2023-05-01T00:26:35.388Z,39.57
2023-05-01T00:29:01.732Z,39.69
2023-05-01T00:31:28.140Z,39.50
2023-05-01T00:33:54.669Z,39.34
2023-05-01T00:36:21.040Z,39.96
2023-05-01T00:38:47.376Z,39.54
2023-05-01T00:41:14.621Z,39.48
2023-05-01T00:43:40.975Z,39.39
2023-05-01T00:46:07.383Z,39.46
2023-05-01T00:48:33.746Z,39.30
2023-05-01T00:51:00.089Z,39.42
2023-05-01T00:53:26.457Z,39.80
2023-05-01T00:55:52.816Z,39.48
2023-05-01T00:58:19.134Z,39.64
2023-05-01T01:00:45.551Z,39.60
2023-05-01T01:03:12.797Z,39.74
2023-05-01T01:05:39.127Z,39.61
2023-05-01T01:08:05.493Z,39.68
2023-05-01T01:10:31.811Z,39.95
2023-05-01T01:12:58.151Z,39.76
2023-05-01T01:15:24.468Z,40.40
2023-05-01T01:17:50.869Z,40.01
2023-05-01T01:20:18.084Z,40.07
2023-05-01T01:22:44.430Z,39.83
2023-05-01T01:25:10.773Z,39.94
2023-05-01T01:27:37.115Z,39.98
2023-05-01T01:30:03.491Z,39.92
2023-05-01T01:32:29.846Z,39.67
2023-05-01T01:34:56.179Z,39.81
2023-05-01T01:37:22.536Z,39.63
2023-05-01T01:39:48.913Z,39.86
2023-05-01T01:42:15.268Z,39.82
2023-05-01T01:44:42.473Z,39.76
2023-05-01T01:47:09.670Z,39.98
2023-05-01T01:49:36.027Z,39.81
2023-05-01T01:52:02.366Z,40.29
2023-05-01T01:54:28.692Z,39.96
2023-05-01T01:59:38.763Z,40.09
2023-05-01T02:02:05.418Z,40.05
2023-05-01T02:04:31.884Z,40.03
2023-05-01T02:06:58.178Z,40.29
2023-05-01T02:09:24.545Z,40.08
2023-05-01T02:14:34.623Z,39.93
2023-05-01T02:17:00.969Z,40.14
2023-05-01T02:19:27.310Z,40.13
2023-05-01T02:21:53.627Z,39.90
2023-05-01T02:24:20.832Z,40.05
2023-05-01T02:29:30.896Z,40.20
2023-05-01T02:31:57.418Z,40.15
2023-05-01T02:34:23.851Z,40.17
2023-05-01T02:36:50.180Z,40.21
2023-05-01T02:39:16.524Z,40.23
2023-05-01T02:44:36.832Z,40.29
2023-05-01T02:47:03.202Z,40.37
2023-05-01T02:49:29.575Z,40.27
2023-05-01T02:51:55.933Z,40.13
2023-05-01T02:54:22.279Z,40.14
2023-05-01T02:59:32.633Z,40.21
2023-05-01T03:01:58.959Z,40.39
2023-05-01T03:04:25.329Z,40.31
2023-05-01T03:06:51.792Z,40.35
2023-05-01T03:09:18.237Z,40.37
2023-05-01T03:14:28.406Z,40.28
2023-05-01T03:16:54.850Z,40.17
2023-05-01T03:19:21.236Z,40.41
2023-05-01T03:21:48.454Z,40.89
2023-05-01T03:24:14.851Z,40.53
2023-05-01T03:29:25.207Z,40.50
2023-05-01T03:31:52.487Z,40.72
2023-05-01T03:34:18.883Z,40.72
2023-05-01T03:36:45.235Z,40.47
2023-05-01T03:39:12.441Z,40.54
2023-05-01T03:41:38.808Z,40.36
2023-05-01T03:44:06.049Z,40.95
2023-05-01T03:46:32.415Z,40.74
2023-05-01T03:48:58.858Z,41.08
2023-05-01T03:51:25.232Z,41.09
2023-05-01T03:53:51.558Z,41.14
2023-05-01T03:56:17.928Z,41.04
2023-05-01T03:58:44.247Z,41.35
2023-05-01T04:01:10.578Z,40.91
2023-05-01T04:03:36.985Z,40.85
2023-05-01T04:06:03.385Z,40.87
2023-05-01T04:08:29.753Z,40.77
2023-05-01T04:10:56.132Z,41.30
2023-05-01T04:13:22.510Z,41.51
2023-05-01T04:15:48.917Z,41.44
2023-05-01T04:18:15.537Z,41.79
2023-05-01T04:20:42.102Z,41.95
2023-05-01T04:23:09.477Z,41.89
2023-05-01T04:25:35.932Z,42.11
2023-05-01T04:28:03.182Z,41.81
2023-05-01T04:30:29.528Z,41.76
2023-05-01T04:32:57.808Z,42.18
2023-05-01T04:35:24.249Z,41.96
2023-05-01T04:37:51.552Z,42.25
2023-05-01T04:40:17.998Z,41.88
2023-05-01T04:42:44.558Z,41.83
2023-05-01T04:47:58.947Z,41.39
2023-05-01T04:50:26.238Z,41.06
2023-05-01T04:52:53.488Z,41.25
2023-05-01T04:55:20.700Z,41.11
2023-05-01T04:57:47.170Z,41.37
2023-05-01T05:02:58.368Z,40.95
2023-05-01T05:05:26.718Z,40.60
2023-05-01T05:07:53.980Z,40.66
2023-05-01T05:10:23.157Z,40.69
2023-05-01T05:12:49.553Z,40.39
2023-05-01T05:18:00.852Z,40.79
2023-05-01T05:20:28.158Z,40.43
2023-05-01T05:22:55.388Z,40.45
2023-05-01T05:25:23.669Z,40.14
2023-05-01T05:27:50.909Z,40.00
2023-05-01T05:33:01.223Z,40.09
2023-05-01T05:35:27.766Z,40.18
2023-05-01T05:37:55.022Z,39.86
2023-05-01T05:40:23.331Z,40.16
2023-05-01T05:42:52.528Z,39.93
2023-05-01T05:48:03.822Z,39.90
2023-05-01T05:50:30.229Z,39.88
2023-05-01T05:52:56.590Z,39.55
2023-05-01T05:55:22.942Z,39.75
2023-05-01T05:57:49.326Z,39.39
2023-05-01T06:02:59.776Z,39.72
2023-05-01T06:05:26.293Z,39.53
2023-05-01T06:07:52.694Z,39.45
2023-05-01T06:10:20.019Z,39.47
2023-05-01T06:13:02.735Z,38.76
2023-05-01T06:18:19.756Z,38.59
2023-05-01T06:20:48.384Z,38.73
2023-05-01T06:23:15.072Z,37.24
2023-05-01T06:25:41.718Z,37.94
2023-05-01T06:28:08.326Z,38.28
2023-05-01T06:33:19.621Z,37.06
2023-05-01T06:35:46.153Z,37.04
2023-05-01T06:38:13.645Z,36.97
2023-05-01T06:40:40.408Z,36.82
2023-05-01T06:43:07.087Z,36.64
2023-05-01T06:48:18.127Z,36.38
2023-05-01T06:50:44.512Z,36.37
2023-05-01T06:53:10.885Z,36.47
2023-05-01T06:55:37.225Z,36.21
2023-05-01T06:58:12.614Z,36.30
2023-05-01T07:03:34.608Z,36.60
2023-05-01T07:06:01.168Z,36.60
2023-05-01T07:08:27.658Z,36.77
2023-05-01T07:10:55.078Z,36.45
2023-05-01T07:13:21.566Z,36.45
2023-05-01T07:18:33.130Z,36.08
2023-05-01T07:20:59.564Z,36.05
2023-05-01T07:23:26.900Z,35.52
2023-05-01T07:25:53.380Z,35.67
2023-05-01T07:28:19.819Z,36.07
2023-05-01T07:30:46.290Z,35.71
2023-05-01T07:33:13.733Z,35.42
2023-05-01T07:35:40.367Z,36.00
2023-05-01T07:38:08.709Z,35.61
2023-05-01T07:40:35.229Z,35.76
2023-05-01T07:43:04.418Z,35.16
2023-05-01T07:45:33.516Z,35.61
2023-05-01T07:47:59.907Z,35.44
2023-05-01T07:50:26.401Z,35.46
2023-05-01T07:52:52.863Z,34.31
2023-05-01T07:55:19.354Z,34.58
2023-05-01T07:57:47.657Z,34.57
2023-05-01T08:00:14.910Z,35.32
2023-05-01T08:02:41.626Z,35.29
2023-05-01T08:05:09.094Z,34.97
2023-05-01T08:07:36.334Z,34.52
2023-05-01T08:10:04.901Z,34.48
2023-05-01T08:12:31.450Z,34.72
2023-05-01T08:14:57.848Z,35.10
2023-05-01T08:17:24.272Z,35.60
2023-05-01T08:19:50.688Z,35.30
2023-05-01T08:22:17.088Z,34.87
2023-05-01T08:24:43.456Z,34.92
2023-05-01T08:27:09.806Z,34.80
2023-05-01T08:29:36.372Z,35.50
2023-05-01T08:32:02.798Z,34.51
2023-05-01T08:34:29.234Z,35.27
2023-05-01T08:36:55.602Z,34.58
2023-05-01T08:39:21.929Z,33.91
2023-05-01T08:41:48.282Z,35.03
2023-05-01T08:44:15.497Z,34.48
2023-05-01T08:46:41.883Z,34.05
2023-05-01T08:51:52.253Z,34.62
2023-05-01T08:54:18.609Z,34.52
2023-05-01T08:56:45.403Z,34.04
2023-05-01T08:59:11.810Z,34.06
2023-05-01T09:01:38.223Z,35.01
2023-05-01T09:06:58.648Z,34.26
2023-05-01T09:09:25.000Z,33.84
2023-05-01T09:11:51.355Z,34.28
2023-05-01T09:14:18.585Z,33.99
2023-05-01T09:16:44.937Z,33.58
2023-05-01T09:21:55.218Z,32.67
2023-05-01T09:24:21.568Z,33.56
2023-05-01T09:26:47.916Z,33.35
2023-05-01T09:29:14.285Z,33.63
2023-05-01T09:31:40.690Z,34.12
2023-05-01T09:36:50.770Z,34.43
2023-05-01T09:39:18.130Z,34.18
2023-05-01T09:41:46.406Z,32.61
2023-05-01T09:44:14.646Z,33.56
2023-05-01T09:46:41.062Z,33.29
2023-05-01T09:51:51.270Z,33.80
2023-05-01T09:54:18.475Z,33.35
2023-05-01T09:56:44.812Z,34.02
2023-05-01T09:59:11.173Z,33.56
2023-05-01T10:01:37.602Z,34.38
2023-05-01T10:06:58.019Z,32.92
2023-05-01T10:09:24.357Z,32.55
2023-05-01T10:11:50.671Z,31.99
2023-05-01T10:14:16.989Z,32.19
2023-05-01T10:16:43.451Z,31.21
2023-05-01T10:21:53.800Z,31.06
2023-05-01T10:24:20.158Z,31.04
2023-05-01T10:26:46.498Z,30.22
2023-05-01T10:29:12.978Z,31.02
2023-05-01T10:31:41.467Z,30.63
2023-05-01T10:36:52.488Z,29.79
2023-05-01T10:39:18.883Z,29.39
2023-05-01T10:41:45.228Z,29.34
2023-05-01T10:44:11.568Z,30.40
2023-05-01T10:46:37.981Z,30.88
2023-05-01T10:51:48.521Z,30.21
2023-05-01T10:54:14.833Z,30.04
2023-05-01T10:56:41.177Z,30.79
2023-05-01T10:59:07.517Z,29.85
2023-05-01T11:01:33.971Z,30.96
2023-05-01T11:06:44.458Z,31.31
2023-05-01T11:09:10.853Z,31.39
2023-05-01T11:11:37.201Z,30.71
2023-05-01T11:14:03.580Z,31.24
2023-05-01T11:16:29.980Z,31.11
2023-05-01T11:18:56.323Z,31.39
2023-05-01T11:21:22.666Z,31.60
2023-05-01T11:23:49.009Z,30.15
2023-05-01T11:26:15.387Z,30.74
2023-05-01T11:28:42.825Z,30.93
2023-05-01T11:31:09.195Z,30.79
2023-05-01T11:33:35.571Z,31.31
2023-05-01T11:36:01.924Z,30.52
2023-05-01T11:38:28.285Z,30.15
2023-05-01T11:40:54.616Z,30.91
2023-05-01T11:43:20.946Z,30.74
2023-05-01T11:45:47.283Z,31.13
2023-05-01T11:48:13.672Z,30.62
2023-05-01T11:50:40.072Z,30.17
2023-05-01T11:53:06.429Z,30.96
2023-05-01T11:55:32.781Z,30.24
2023-05-01T11:57:59.131Z,29.78
2023-05-01T12:00:25.492Z,30.55
2023-05-01T12:02:51.881Z,30.48
2023-05-01T12:05:18.245Z,28.77
2023-05-01T12:07:44.585Z,30.10
2023-05-01T12:10:10.936Z,29.82
2023-05-01T12:12:37.277Z,29.27
2023-05-01T12:15:03.629Z,29.69
2023-05-01T12:17:30.264Z,30.30
2023-05-01T12:19:56.716Z,30.56
2023-05-01T12:25:07.167Z,30.07
2023-05-01T12:27:33.505Z,29.22
2023-05-01T12:29:59.855Z,28.77
2023-05-01T12:32:26.220Z,29.57
2023-05-01T12:34:52.601Z,28.60
2023-05-01T12:40:03.020Z,28.74
2023-05-01T12:42:29.378Z,28.84
2023-05-01T12:44:55.721Z,29.00
2023-05-01T12:47:22.118Z,29.68
2023-05-01T12:49:48.461Z,29.62
2023-05-01T12:54:58.943Z,30.22
2023-05-01T12:57:25.400Z,29.49
2023-05-01T12:59:51.748Z,29.17
2023-05-01T13:02:18.265Z,29.52
2023-05-01T13:04:44.825Z,29.69
2023-05-01T13:10:05.172Z,29.42
2023-05-01T13:12:31.512Z,29.30
2023-05-01T13:14:57.873Z,29.03
2023-05-01T13:17:24.242Z,28.11
2023-05-01T13:19:50.610Z,28.78
2023-05-01T13:25:01.111Z,29.01
2023-05-01T13:27:27.463Z,29.03
2023-05-01T13:29:53.944Z,29.46
2023-05-01T13:32:20.328Z,28.47
2023-05-01T13:34:46.639Z,28.26
2023-05-01T13:40:07.080Z,28.11
2023-05-01T13:42:33.448Z,28.27
2023-05-01T13:44:59.847Z,27.89
2023-05-01T13:47:26.304Z,27.77
2023-05-01T13:49:52.756Z,27.49
2023-05-01T13:55:05.562Z,29.03
2023-05-01T13:57:32.275Z,28.37
2023-05-01T13:59:58.623Z,27.92
2023-05-01T14:02:27.838Z,28.44
2023-05-01T14:04:54.279Z,28.22
2023-05-01T14:10:04.656Z,29.13
2023-05-01T14:12:32.986Z,29.44
2023-05-01T14:14:59.666Z,29.46
2023-05-01T14:17:26.269Z,29.43
2023-05-01T14:19:52.635Z,29.37
2023-05-01T14:25:02.918Z,29.31
2023-05-01T14:27:29.267Z,29.35
2023-05-01T14:29:55.638Z,29.48
2023-05-01T14:32:22.013Z,30.35
2023-05-01T14:34:48.359Z,30.54
2023-05-01T14:40:08.631Z,30.60
2023-05-01T14:42:34.970Z,30.61
2023-05-01T14:45:01.372Z,30.54
2023-05-01T14:47:27.898Z,30.67
2023-05-01T14:49:54.355Z,30.80
2023-05-01T14:52:20.914Z,30.67
2023-05-01T14:54:48.287Z,31.10
2023-05-01T14:57:14.684Z,30.77
2023-05-01T14:59:41.051Z,30.96
2023-05-01T15:02:07.495Z,30.77
2023-05-01T15:04:34.033Z,30.47
2023-05-01T15:07:00.543Z,30.60
2023-05-01T15:09:26.877Z,30.28
2023-05-01T15:11:53.197Z,31.07
2023-05-01T15:14:19.565Z,30.32
2023-05-01T15:16:46.071Z,30.44
2023-05-01T15:19:12.545Z,30.37
2023-05-01T15:21:38.875Z,30.18
2023-05-01T15:24:05.239Z,30.65
2023-05-01T15:26:31.568Z,31.45
2023-05-01T15:28:57.944Z,31.83
2023-05-01T15:31:24.365Z,32.02
2023-05-01T15:33:50.726Z,31.83
2023-05-01T15:36:17.115Z,31.77
2023-05-01T15:38:43.456Z,32.18
2023-05-01T15:41:09.818Z,32.06
2023-05-01T15:43:36.171Z,31.97
2023-05-01T15:46:02.898Z,31.96
2023-05-01T15:48:29.332Z,31.94
2023-05-01T15:50:55.715Z,32.46
2023-05-01T15:53:22.071Z,32.85
2023-05-01T15:55:48.421Z,32.69
2023-05-01T15:58:14.731Z,32.75
2023-05-01T16:00:41.095Z,32.09
2023-05-01T16:03:07.539Z,32.73
2023-05-01T16:05:33.960Z,32.27
2023-05-01T16:08:00.364Z,32.24
2023-05-01T16:13:10.713Z,32.19
2023-05-01T16:15:37.063Z,32.27
2023-05-01T16:18:03.493Z,32.08
2023-05-01T16:20:29.897Z,32.50
2023-05-01T16:22:56.227Z,32.77
2023-05-01T16:28:06.607Z,33.70
2023-05-01T16:30:33.086Z,34.21
2023-05-01T16:33:00.501Z,35.05
2023-05-01T16:35:26.945Z,35.04
2023-05-01T16:37:53.390Z,35.23
2023-05-01T16:43:06.529Z,35.81
2023-05-01T16:45:33.052Z,35.96
2023-05-01T16:47:59.562Z,35.82
2023-05-01T16:50:26.098Z,36.20
2023-05-01T16:52:52.589Z,36.26
2023-05-01T16:58:03.746Z,36.48
2023-05-01T17:00:30.104Z,36.18
2023-05-01T17:02:56.548Z,36.20
2023-05-01T17:05:22.990Z,36.44
2023-05-01T17:07:49.321Z,36.03
2023-05-01T17:13:00.435Z,36.50
2023-05-01T17:15:26.795Z,36.37
2023-05-01T17:17:53.189Z,36.47
2023-05-01T17:20:19.542Z,36.83
2023-05-01T17:22:45.885Z,36.23
2023-05-01T17:27:56.326Z,36.60
2023-05-01T17:30:22.704Z,36.33
2023-05-01T17:32:49.501Z,36.30
2023-05-01T17:35:16.037Z,36.61
2023-05-01T17:37:42.443Z,36.39
2023-05-01T17:42:52.597Z,36.77
2023-05-01T17:45:18.923Z,36.36
2023-05-01T17:47:48.047Z,36.53
2023-05-01T17:50:14.418Z,36.67
2023-05-01T17:52:40.750Z,36.70
2023-05-01T17:55:07.075Z,37.21
2023-05-01T17:57:33.391Z,37.54
2023-05-01T18:00:00.104Z,37.77
2023-05-01T18:02:26.817Z,37.75
2023-05-01T18:04:53.200Z,37.67
2023-05-01T18:07:19.562Z,37.40
2023-05-01T18:09:48.685Z,37.89
2023-05-01T18:12:15.055Z,38.01
2023-05-01T18:14:41.384Z,38.49
2023-05-01T18:17:07.863Z,38.48
2023-05-01T18:19:34.352Z,38.27
2023-05-01T18:22:03.466Z,38.18
2023-05-01T18:24:29.797Z,38.31
2023-05-01T18:26:56.156Z,39.06
2023-05-01T18:29:22.474Z,39.33
2023-05-01T18:31:48.898Z,39.52
2023-05-01T18:34:15.304Z,39.83
2023-05-01T18:36:41.676Z,39.37
2023-05-01T18:39:08.026Z,39.94
2023-05-01T18:41:34.350Z,40.44
2023-05-01T18:44:00.656Z,40.72
2023-05-01T18:46:27.027Z,40.74
2023-05-01T18:48:56.165Z,40.96
2023-05-01T18:51:25.277Z,40.57
2023-05-01T18:53:51.604Z,40.79
2023-05-01T18:56:17.918Z,40.14
2023-05-01T18:58:44.297Z,40.10
2023-05-01T19:01:13.440Z,40.43
2023-05-01T19:03:42.555Z,40.78
2023-05-01T19:06:08.904Z,40.69
2023-05-01T19:08:38.063Z,40.38
2023-05-01T19:11:04.399Z,40.25
2023-05-01T19:16:14.429Z,39.99
2023-05-01T19:18:40.781Z,40.21
2023-05-01T19:21:07.253Z,40.71
2023-05-01T19:23:33.606Z,40.56
2023-05-01T19:25:59.925Z,40.50
2023-05-01T19:31:15.849Z,40.36
2023-05-01T19:33:42.214Z,40.59
2023-05-01T19:36:08.560Z,40.50
2023-05-01T19:38:34.943Z,40.71
2023-05-01T19:41:04.109Z,40.71
2023-05-01T19:46:14.239Z,40.63
2023-05-01T19:48:40.617Z,40.96
2023-05-01T19:51:06.947Z,41.29
2023-05-01T19:53:33.313Z,41.31
2023-05-01T19:55:59.697Z,41.77
2023-05-01T20:01:09.926Z,41.19
2023-05-01T20:03:36.294Z,41.13
2023-05-01T20:06:02.681Z,40.79
2023-05-01T20:08:29.023Z,40.88
2023-05-01T20:10:55.366Z,40.43
2023-05-01T20:16:05.608Z,40.24
2023-05-01T20:18:31.975Z,40.10
2023-05-01T20:20:58.320Z,39.73
2023-05-01T20:23:24.640Z,40.03
2023-05-01T20:25:50.986Z,39.77
2023-05-01T20:31:01.338Z,39.57
2023-05-01T20:33:27.694Z,39.57
2023-05-01T20:35:54.054Z,39.44
2023-05-01T20:38:21.259Z,39.43
2023-05-01T20:40:47.626Z,38.91
2023-05-01T20:45:57.873Z,39.30
2023-05-01T20:48:24.216Z,39.52
2023-05-01T20:50:50.744Z,39.38
2023-05-01T20:53:17.121Z,39.26
2023-05-01T20:55:43.577Z,39.44
2023-05-01T21:00:54.671Z,39.28
2023-05-01T21:03:23.066Z,39.26
2023-05-01T21:05:49.600Z,38.86
2023-05-01T21:08:16.076Z,38.82
2023-05-01T21:10:43.500Z,39.07
2023-05-01T21:13:10.770Z,38.79
2023-05-01T21:15:39.096Z,38.88
2023-05-01T21:18:07.440Z,38.71
2023-05-01T21:20:33.883Z,38.42
2023-05-01T21:23:00.320Z,38.55
2023-05-01T21:25:26.665Z,38.40
2023-05-01T21:27:53.069Z,38.54
2023-05-01T21:30:21.327Z,38.25
2023-05-01T21:32:47.723Z,38.08
2023-05-01T21:35:17.376Z,38.04
2023-05-01T21:37:45.052Z,38.23
2023-05-01T21:40:11.422Z,37.75
2023-05-01T21:42:37.784Z,37.73
2023-05-01T21:45:04.155Z,37.88
2023-05-01T21:47:30.520Z,36.83
2023-05-01T21:49:57.200Z,37.74
2023-05-01T21:52:23.691Z,37.60
2023-05-01T21:54:50.028Z,37.77
2023-05-01T21:57:17.250Z,37.58
2023-05-01T21:59:43.609Z,37.67
2023-05-01T22:02:09.910Z,37.94
2023-05-01T22:04:36.433Z,37.80
2023-05-01T22:07:03.685Z,37.55
2023-05-01T22:09:30.056Z,37.93
2023-05-01T22:11:56.396Z,37.76
2023-05-01T22:14:22.717Z,37.96
2023-05-01T22:16:49.064Z,38.29
2023-05-01T22:19:15.444Z,37.79
2023-05-01T22:21:41.788Z,38.70
2023-05-01T22:24:08.148Z,38.89
2023-05-01T22:26:34.476Z,38.62
2023-05-01T22:29:00.831Z,39.40
2023-05-01T22:34:11.292Z,39.48
2023-05-01T22:36:37.648Z,39.86
2023-05-01T22:39:04.014Z,39.68
2023-05-01T22:41:30.380Z,39.94
2023-05-01T22:43:56.746Z,40.48
2023-05-01T22:49:06.851Z,40.40
2023-05-01T22:51:33.185Z,40.35
2023-05-01T22:53:59.520Z,40.14
2023-05-01T22:56:25.872Z,40.21
2023-05-01T22:58:52.213Z,40.81
2023-05-01T23:04:02.723Z,40.87
2023-05-01T23:06:29.199Z,40.53
2023-05-01T23:08:55.566Z,40.60
2023-05-01T23:11:21.900Z,39.85
2023-05-01T23:13:48.262Z,40.50
2023-05-01T23:18:59.519Z,41.11
2023-05-01T23:21:25.874Z,41.07
2023-05-01T23:23:52.228Z,41.30
2023-05-01T23:26:19.419Z,40.96
2023-05-01T23:28:45.749Z,40.60
2023-05-01T23:33:57.089Z,41.15
2023-05-01T23:36:23.430Z,41.49
2023-05-01T23:38:49.863Z,41.35
2023-05-01T23:41:16.224Z,41.23
2023-05-01T23:43:42.578Z,41.02
2023-05-01T23:48:52.698Z,40.94
2023-05-01T23:51:19.069Z,40.89
2023-05-01T23:53:45.402Z,40.59
2023-05-01T23:56:11.747Z,41.04
2023-05-01T23:58:38.091Z,40.87
